Latest Coastal Weather Observations for Low Rocky Point

IDT60701

Issued at 2:32 am EST Monday 20 May 2019 (issued every 10 minutes, with the page automatically refreshed every 10 minutes)

About coastal observations | Map of coastal stations | Coastal observations for TAS | Marine services | Other Formats
Station Details ID: 097080 Name: LOW ROCKY POINT Lat: -42.98 Lon: 145.50 Height: 34.0 m
Data from the previous 72 hours. | See also: Recent months at Low Rocky Point
Date/Time
EST
Wind Sea
Height
m
Swell Vis
km
Cloud Weather Temp
°C
Press
hPa
Rain since
9am
mm
Dir  Spd
kts
Gust
kts
Height
m
Period
s
Dir
20/02:30am NNE 13 16 - - - - - - - 11.1 1021.4 -
20/02:00am NNE 13 15 - - - - - - - 10.5 1021.4 -
20/01:30am NNE 13 15 - - - - - - - 10.2 1021.4 -
20/01:00am NNE 13 17 - - - - - - - 10.0 1021.6 -
20/12:30am NNE 14 17 - - - - - - - 9.5 1021.9 -
20/12:00am NNE 14 16 - - - - - - - 9.2 1022.3 -
 
Date/Time
EST
Wind Sea
Height
m
Swell Vis
km
Cloud Weather Temp
°C
Press
hPa
Rain since
9am
mm
Dir  Spd
kts
Gust
kts
Height
m
Period
s
Dir
19/11:30pm NNE 14 17 - - - - - - - 9.4 1022.5 -
19/11:00pm NNE 14 17 - - - - - - - 9.4 1022.7 -
19/10:30pm NNE 14 17 - - - - - - - 9.7 1023.0 -
19/10:00pm NNE 13 16 - - - - - - - 10.0 1023.3 -
19/09:30pm NNE 13 16 - - - - - - - 10.0 1023.5 -
19/09:00pm NNE 12 14 - - - - - - - 10.3 1023.6 -
19/08:30pm NNE 13 15 - - - - - - - 10.0 1023.9 -
19/08:00pm NNE 11 13 - - - - - - - 9.5 1024.2 -
19/07:30pm ENE 9 9 - - - - - - - 9.7 1024.2 -
19/07:00pm ENE 8 8 - - - - - - - 10.0 1024.5 -
19/06:30pm ENE 7 8 - - - - - - - 10.0 1024.5 -
19/06:00pm ENE 5 7 - - - - - - - 9.8 1024.4 -
19/05:30pm NNE 4 6 - - - - - - - 10.9 1024.7 -
19/05:00pm NW 3 4 - - - - - - - 12.1 1025.0 -
19/04:30pm CALM 0 0 - - - - - - - 13.1 1025.2 -
19/04:00pm WNW 6 7 - - - - - - - 13.8 1025.2 -
19/03:30pm WNW 6 7 - - - - - - - 14.6 1025.5 -
19/03:00pm WNW 6 8 - - - - - - - 15.0 1025.7 -
19/02:30pm WNW 6 7 - - - - - - - 14.8 1026.0 -
19/02:00pm WNW 6 7 - - - - - - - 15.0 1026.3 -
19/01:30pm WNW 6 7 - - - - - - - 14.9 1026.5 -
19/01:00pm W 4 5 - - - - - - - 13.8 1026.6 -
19/12:30pm W 4 6 - - - - - - - 14.1 1027.1 -
19/12:00pm W 4 5 - - - - - - - 13.8 1027.6 -
19/11:30am WNW 5 6 - - - - - - - 13.4 1028.2 -
19/11:00am WNW 4 6 - - - - - - - 12.9 1028.4 -
19/10:30am WNW 2 5 - - - - - - - 12.8 1028.5 -
19/10:00am N 2 3 - - - - - - - 12.2 1028.6 -
19/09:30am NNE 4 6 - - - - - - - 11.0 1028.8 -
19/09:00am NNE 6 9 - - - - - - - 9.5 1028.8 -
19/08:30am NNE 7 9 - - - - - - - 8.3 1028.9 -
19/08:00am NNE 4 8 - - - - - - - 8.1 1029.0 -
19/07:30am N 1 4 - - - - - - - 7.5 1028.9 -
19/07:00am ENE 6 8 - - - - - - - 7.7 1028.6 -
19/06:30am NE 7 9 - - - - - - - 8.8 1028.5 -
19/06:00am NE 7 8 - - - - - - - 9.1 1028.4 -
19/05:30am ENE 6 7 - - - - - - - 8.9 1028.2 -
19/05:00am NE 7 8 - - - - - - - 9.4 1028.6 -
19/04:30am ENE 6 7 - - - - - - - 9.3 1028.5 -
19/04:00am ENE 7 8 - - - - - - - 10.1 1028.7 -
19/03:30am NNE 5 7 - - - - - - - 11.0 1029.3 -
19/03:00am NNE 5 6 - - - - - - - 11.1 1029.5 -
19/02:30am ENE 4 6 - - - - - - - 11.1 1029.5 -
19/02:00am NE 5 5 - - - - - - - 11.3 1029.9 -
19/01:30am NE 4 5 - - - - - - - 11.5 1030.1 -
19/01:00am ESE 7 8 - - - - - - - 11.7 1030.0 -
19/12:30am E 6 8 - - - - - - - 11.9 1030.3 -
19/12:00am E 7 9 - - - - - - - 12.1 1030.2 -
 
Date/Time
EST
Wind Sea
Height
m
Swell Vis
km
Cloud Weather Temp
°C
Press
hPa
Rain since
9am
mm
Dir  Spd
kts
Gust
kts
Height
m
Period
s
Dir
18/11:30pm SE 5 7 - - - - - - - 12.2 1030.3 -
18/11:00pm SE 5 7 - - - - - - - 12.3 1030.3 -
18/10:30pm SSE 6 8 - - - - - - - 12.2 1030.5 -
18/10:00pm S 6 8 - - - - - - - 12.5 1030.5 -
18/09:30pm S 5 7 - - - - - - - 12.3 1030.5 -
18/09:00pm S 5 6 - - - - - - - 12.4 1030.4 -
18/08:30pm S 5 6 - - - - - - - 12.3 1030.3 -
18/08:00pm SSW 4 6 - - - - - - - 12.2 1030.1 -
18/07:30pm S 4 6 - - - - - - - 12.4 1029.9 -
18/07:00pm S 6 8 - - - - - - - 12.6 1029.9 -
18/06:30pm SSW 4 7 - - - - - - - 12.7 1029.8 -
18/06:00pm S 6 7 - - - - - - - 12.7 1029.4 -
18/05:30pm S 6 8 - - - - - - - 13.0 1029.2 -
18/05:00pm SSW 5 8 - - - - - - - 13.3 1029.2 -
18/04:30pm SW 5 8 - - - - - - - 13.9 1029.3 -
18/04:00pm WSW 6 8 - - - - - - - 14.4 1029.3 -
18/03:30pm WSW 5 8 - - - - - - - 14.1 1029.2 -
18/03:00pm WSW 6 8 - - - - - - - 14.6 1029.1 -
18/02:30pm WSW 7 11 - - - - - - - 15.4 1029.1 -
18/02:00pm W 10 12 - - - - - - - 15.5 1029.1 -
18/01:30pm W 10 12 - - - - - - - 16.0 1029.0 -
18/01:00pm W 11 13 - - - - - - - 15.3 1029.1 -
18/12:30pm WNW 11 13 - - - - - - - 15.5 1029.2 -
18/12:00pm W 11 13 - - - - - - - 14.8 1029.5 -
18/11:30am WNW 11 13 - - - - - - - 15.7 1029.5 -
18/11:00am W 12 14 - - - - - - - 15.1 1029.5 -
18/10:30am WNW 13 16 - - - - - - - 14.8 1029.6 -
18/10:00am WNW 13 15 - - - - - - - 14.4 1029.8 -
18/09:30am W 12 15 - - - - - - - 14.3 1029.8 -
18/09:00am W 11 14 - - - - - - - 13.2 1029.6 -
18/08:30am W 14 16 - - - - - - - 13.4 1029.2 -
18/08:00am W 15 17 - - - - - - - 14.0 1029.2 -
18/07:30am WNW 16 20 - - - - - - - 13.9 1028.7 -
18/07:00am WNW 15 19 - - - - - - - 13.8 1028.4 -
18/06:30am WNW 16 19 - - - - - - - 13.7 1027.9 -
18/06:00am WNW 16 19 - - - - - - - 13.7 1027.8 -
18/05:30am NW 19 22 - - - - - - - 13.7 1027.1 -
18/05:00am NW 17 22 - - - - - - - 13.8 1027.1 -
18/04:30am WNW 15 19 - - - - - - - 13.8 1027.3 -
18/04:00am WNW 15 18 - - - - - - - 13.9 1027.3 -
18/03:30am NW 17 21 - - - - - - - 13.9 1027.0 -
18/03:00am WNW 14 18 - - - - - - - 13.7 1027.1 -
18/02:30am WNW 16 19 - - - - - - - 13.7 1027.1 -
18/02:00am WNW 16 19 - - - - - - - 13.8 1026.9 -
18/01:30am NW 16 19 - - - - - - - 13.9 1026.9 -
18/01:00am NW 16 20 - - - - - - - 14.0 1026.8 -
18/12:30am NW 16 21 - - - - - - - 14.0 1026.7 -
18/12:00am NW 18 22 - - - - - - - 14.0 1026.5 -
 
Date/Time
EST
Wind Sea
Height
m
Swell Vis
km
Cloud Weather Temp
°C
Press
hPa
Rain since
9am
mm
Dir  Spd
kts
Gust
kts
Height
m
Period
s
Dir
17/11:30pm WNW 17 21 - - - - - - - 14.0 1026.4 -
17/11:00pm NW 17 21 - - - - - - - 14.0 1026.3 -
17/10:30pm WNW 17 20 - - - - - - - 14.1 1026.4 -
17/10:00pm WNW 15 19 - - - - - - - 14.4 1026.6 -
17/09:30pm WNW 18 21 - - - - - - - 14.5 1026.6 -
17/09:00pm WNW 18 20 - - - - - - - 14.2 1026.2 -
17/08:30pm WNW 18 21 - - - - - - - 14.3 1025.9 -
17/08:00pm WNW 17 21 - - - - - - - 14.3 1025.5 -
17/07:30pm NW 18 21 - - - - - - - 14.4 1025.3 -
17/07:00pm NW 19 23 - - - - - - - 14.2 1025.0 -
17/06:30pm NW 20 25 - - - - - - - 14.4 1024.8 -
17/06:00pm NW 18 23 - - - - - - - 14.4 1024.6 -
17/05:30pm NW 19 24 - - - - - - - 14.3 1024.3 -
17/05:00pm NW 19 24 - - - - - - - 14.3 1024.1 -
17/04:30pm NW 21 27 - - - - - - - 14.3 1023.7 -
17/04:19pm NW 20 30 - - - - - - - 14.4 1023.7 -
17/04:00pm NW 21 27 - - - - - - - 14.5 1023.9 -
17/03:30pm NW 22 30 - - - - - - - 14.5 1023.6 -
17/03:00pm NW 22 28 - - - - - - - 14.7 1023.5 -
17/02:30pm NW 22 28 - - - - - - - 15.0 1023.2 -
17/02:00pm NW 24 28 - - - - - - - 14.6 1023.2 -
17/01:30pm NW 23 27 - - - - - - - 14.5 1023.3 -
17/01:00pm NW 22 28 - - - - - - - 14.6 1023.4 -
17/12:30pm NW 22 27 - - - - - - - 15.1 1023.5 -
17/12:00pm NW 23 27 - - - - - - - 14.3 1023.9 -
17/11:30am NW 25 30 - - - - - - - 14.3 1024.1 -
17/11:00am NW 24 29 - - - - - - - 14.5 1024.1 -
17/10:30am NW 24 28 - - - - - - - 14.3 1024.1 -
17/10:00am NNW 18 24 - - - - - - - 13.6 1024.2 -
17/09:30am NNW 15 21 - - - - - - - 13.3 1024.3 -
17/09:00am NNW 14 19 - - - - - - - 12.7 1024.0 -
17/08:30am NNW 12 16 - - - - - - - 12.0 1024.0 -
17/08:00am N 12 16 - - - - - - - 11.5 1023.6 -
17/07:34am NNW 18 25 - - - - - - - 12.6 1023.4 -
17/07:30am NW 21 26 - - - - - - - 13.6 1023.3 -
17/07:00am NW 22 27 - - - - - - - 13.6 1023.2 -
17/06:30am NW 20 27 - - - - - - - 13.5 1023.1 -
17/06:20am NW 20 25 - - - - - - - 13.4 1023.1 -
17/06:00am NNW 13 21 - - - - - - - 11.9 1023.0 -
17/05:30am NNW 13 17 - - - - - - - 11.8 1023.0 -
17/05:00am NNW 12 17 - - - - - - - 11.4 1022.8 -
17/04:30am NNW 13 17 - - - - - - - 11.4 1022.6 -
17/04:00am NNW 13 17 - - - - - - - 11.4 1022.5 -
17/03:30am N 12 17 - - - - - - - 11.1 1022.6 -
17/03:00am N 11 15 - - - - - - - 11.0 1022.7 -

Other formats

Comma delimited format used in spreadsheet applications
http://www.bom.gov.au/fwo/IDT60701/IDT60701.95961.axf

JavaScript Object Notation format (JSON) in row-major order
http://www.bom.gov.au/fwo/IDT60701/IDT60701.95961.json

Data quality

Most of these data are generated automatically and are frequently updated. Quality checks on data are not normally performed. It is possible for incorrect values to appear. Refer to information at About Latest Weather Observations and please check the disclaimer before using these data.